Historique des mesures à Cassis (13260), France
Quotidien Résumé Mai 11, 2018 Unités:  Métrique    US   Métrique/US
« Précédent (Jour)
Suivant (Jour) »
Quotidien Hebdomadaire Mensuel Annuel Période au choix
  Maximum: Minimum: Moyenne:
Température: TemperatureC °C 14.5 °C 17.9 °C
Point de rosée: DewpointC °C 8.8 °C 11.2 °C
Humidité: Humidity % 56 % 62 %
Vitesse du vent: 0 km/h 0 km/h 4 km/h
Rafales: 0 km/h - -
Vent:- - SSE
Pression: PressurehPa hPa 1009.7 hPa -
Précipitations: 0.0 mm    
Historical Graphs
 
 
Mesures pour : Mai 11, 2018
Heure Temperature Point de rosée Pression Vent Vitesse du vent Rafales Humidité Pluie (par heure) Conditions
TemperatureC °C DewpointC °C PressurehPa hPa Calm     Humidity % HourlyPrecipMM mm SoftwareType W/m2
00:10 16.7 °C 8.9 °C 1010.0 hPa Calm   9.3 km/h 60 % 0.0 mm open2300-1.11 W/m2
01:10 16.0 °C 8.8 °C 1010.4 hPa NE 6.4 km/h 6.4 km/h 62 % 0.0 mm open2300-1.11 W/m2
02:10 15.6 °C 8.8 °C 1010.0 hPa North 12.7 km/h 12.7 km/h 64 % 0.0 mm open2300-1.11 W/m2
03:10 15.2 °C 8.9 °C 1010.0 hPa NW 4.2 km/h 11.6 km/h 66 % 0.0 mm open2300-1.11 W/m2
04:10 14.8 °C 8.9 °C 1009.7 hPa NNW 3.4 km/h 8 km/h 68 % 0.0 mm open2300-1.11 W/m2
05:10 14.9 °C 9.3 °C 1010.0 hPa Calm   4.2 km/h 69 % 0.0 mm open2300-1.11 W/m2
06:10 14.5 °C 9.1 °C 1010.7 hPa Calm     70 % 0.0 mm open2300-1.11 W/m2
07:12 14.6 °C 9.4 °C 1010.7 hPa Calm   2.3 km/h 71 % 0.0 mm open2300-1.11 W/m2
08:11 18.8 °C 12.5 °C 1011.4 hPa Calm     67 % 0.0 mm open2300-1.11 W/m2
09:11 17.5 °C 11.6 °C 1011.7 hPa SSE 7.6 km/h 7.6 km/h 68 % 0.0 mm open2300-1.11 W/m2
10:11 17.9 °C 12.2 °C 1012.1 hPa SE 5.1 km/h 9.3 km/h 69 % 0.0 mm open2300-1.11 W/m2
11:11 21.6 °C 14.0 °C 1012.8 hPa Calm   6.9 km/h 62 % 0.0 mm open2300-1.11 W/m2
12:12 22.5 °C 14.1 °C 1013.1 hPa SE 6.4 km/h 11.6 km/h 59 % 0.0 mm open2300-1.11 W/m2
13:12 22.9 °C 13.9 °C 1013.4 hPa SSE 12.7 km/h 12.7 km/h 57 % 0.0 mm open2300-1.11 W/m2
14:11 23.1 °C 14.1 °C 1013.4 hPa South 8 km/h 11.6 km/h 57 % 0.0 mm open2300-1.11 W/m2
15:11 22.9 °C 13.6 °C 1013.4 hPa SSW 7.6 km/h 23.8 km/h 56 % 0.0 mm open2300-1.11 W/m2
16:11 22.5 °C 13.5 °C 1013.1 hPa SSE 10.9 km/h 10.9 km/h 57 % 0.0 mm open2300-1.11 W/m2
17:11 21.8 °C 13.2 °C 1013.1 hPa SSW 9.3 km/h 9.3 km/h 58 % 0.0 mm open2300-1.11 W/m2
18:10 21.3 °C 13.0 °C 1012.8 hPa Calm   14.5 km/h 59 % 0.0 mm open2300-1.11 W/m2
19:10 20.4 °C 12.9 °C 1012.8 hPa SE 4.7 km/h 4.7 km/h 62 % 0.0 mm open2300-1.11 W/m2
20:10 19.4 °C 11.9 °C 1012.8 hPa Calm     62 % 0.0 mm open2300-1.11 W/m2
21:10 18.4 °C 12.6 °C 1013.4 hPa Calm     69 % 0.0 mm open2300-1.11 W/m2
22:10 18.0 °C 12.9 °C 1013.8 hPa Calm     72 % 0.0 mm open2300-1.11 W/m2
23:10 17.4 °C 12.5 °C 1013.8 hPa Calm     73 % 0.0 mm open2300-1.11 W/m2
Observations météo à CASSIS
WU-History script by Weather Underground - 1 mb